Flight Track Log - Related Links

Times and Time Zones

All times are in EDT time to prevent confusion due to time zone crossing. See the QJE1799 flight status page for this flight to view local times or setup timezone preferences in your user account.


Time Position Orientation Groundspeed Altitude Reporting Facility
EDT Latitude Longitude Course Direction KTS MPH feet Rate Location/Type
Sat 11:41:18 PM -23.8502 134.0789 105° East 33,000  Level Aus ATC (Calculated)
Sat 11:41:38 PM -23.8502 134.0789 105° East 33,000 25 Level Aus ATC (Calculated)
Sat 11:42:44 PM -23.8784 134.2371 105° East 33,000 26 Level Aus ATC (Calculated)
Sat 11:43:00 PM -23.8958 134.2733 104° East  Level FlightAware Approximate
Sat 11:44:00 PM -23.9210 134.4172 105° East  Level FlightAware Approximate
Sat 11:44:38 PM -23.9421 134.5066 104° East 33,000  Level Aus ATC (Calculated)
Sat 11:45:42 PM -23.9632 134.5964 104° East 33,000 26 Level Aus ATC (Calculated)
Sat 11:46:00 PM -23.9877 134.7011 104° East  Level FlightAware Approximate
Sat 11:46:27 PM -23.9843 134.6863 104° East 33,000  Level Aus ATC (Calculated)
Sat 11:47:00 PM -24.0065 134.7815 104° East  Level FlightAware Approximate
Sat 11:48:00 PM -24.0358 134.9071 104° East  Level FlightAware Approximate
Sat 11:48:08 PM -24.0568 134.9705 104° East 33,000  Level Aus ATC (Calculated)
Sat 11:50:00 PM -24.1175 135.2369 104° East  Level FlightAware Approximate
Sat 11:50:30 PM -24.1097 135.2264 104° East 33,000  Level Aus ATC (Calculated)
Sat 11:51:00 PM -24.1380 135.3280 104° East 33,000 28 Level Aus ATC (Calculated)
Sat 11:52:00 PM -24.1702 135.4708 104° East  Level FlightAware Approximate
Sat 11:52:02 PM -24.1783 135.5068 104° East 33,000  Level Aus ATC (Calculated)
Sat 11:52:52 PM -24.1984 135.5963 104° East 33,000 29 Level Aus ATC (Calculated)
Sat 11:54:00 PM -24.2346 135.7584 104° East  Level FlightAware Approximate
Sat 11:54:30 PM -24.2384 135.7754 104° East 33,000  Level Aus ATC (Calculated)
Sat 11:55:00 PM -24.2664 135.9015 104° East  Level FlightAware Approximate
Sat 11:56:00 PM -24.2860 135.9901 104° East  Level FlightAware Approximate
Sat 11:56:46 PM -24.2980 136.0442 104° East 33,000  Level Aus ATC (Calculated)
Sat 11:57:00 PM -24.3176 136.1333 104° East  Level FlightAware Approximate
Sat 11:58:00 PM -24.3368 136.2208 104° East  Level FlightAware Approximate
Sat 11:59:00 PM -24.3682 136.3642 104° East  Level FlightAware Approximate
Sun 12:00:00 AM -24.3994 136.5075 103° East  Level FlightAware Approximate
Sun 12:01:00 AM -24.4305 136.6510 103° East  Level FlightAware Approximate
Sun 12:01:46 AM -24.4545 136.7622 103° East 33,000  Level Aus ATC (Calculated)
Sun 12:02:00 AM -24.4648 136.7936 103° East  Level Estimated
Sun 12:03:00 AM -24.4930 136.9391 103° East  Level FlightAware Approximate
Sun 12:03:06 AM -24.4915 136.9325 103° East 33,000  Level Aus ATC (Calculated)
Sun 12:04:07 AM -24.5284 137.1030 103° East 33,000 34 Level Aus ATC (Calculated)
Sun 12:05:00 AM -24.5504 137.2054 103° East  Level FlightAware Approximate
Sun 12:06:00 AM -24.5865 137.3736 103° East  Level FlightAware Approximate
Sun 12:06:11 AM -24.5894 137.3873 103° East 33,000  Level Aus ATC (Calculated)
Sun 12:07:07 AM -24.6258 137.5581 103° East 33,000 35 Level Aus ATC (Calculated)
Sun 12:09:00 AM -24.6840 137.8339 103° East  Level FlightAware Approximate
Sun 12:09:32 AM -24.7068 137.9421 103° East 33,000  Level Aus ATC (Calculated)
Sun 12:10:33 AM -24.7406 138.1043 103° East 33,000 37 Level Aus ATC (Calculated)
Sun 12:10:46 AM -24.7406 138.1043 103° East 33,000 38 Level Aus ATC (Calculated)
Sun 12:12:00 AM -24.7770 138.2795 103° East  Level FlightAware Approximate
Sun 12:13:00 AM -24.8063 138.4216 103° East  Level FlightAware Approximate
Sun 12:14:00 AM -24.8355 138.5637 103° East  Level FlightAware Approximate
Sun 12:15:00 AM -24.8645 138.7059 103° East  Level FlightAware Approximate
Sun 12:15:41 AM -24.9073 138.9167 103° East 33,000  Level Aus ATC (Calculated)
Sun 12:16:00 AM -24.8934 138.8482 103° East  Level FlightAware Approximate
Sun 12:17:00 AM -24.9451 139.1042 103° East  Level FlightAware Approximate
Sun 12:18:00 AM -24.9736 139.2467 102° East  Level FlightAware Approximate
Sun 12:19:00 AM -25.0021 139.3892 102° East  Level FlightAware Approximate
Sun 12:20:00 AM -25.0303 139.5318 102° East  Level FlightAware Approximate
Sun 12:20:40 AM -25.0803 139.7856 102° East 33,000  Level Aus ATC (Calculated)
Sun 12:21:00 AM -25.0585 139.6745 102° East  Level FlightAware Approximate
Sun 12:22:00 AM -25.1174 139.9760 102° East  Level FlightAware Approximate
Sun 12:23:00 AM -25.1451 140.1189 102° East  Level FlightAware Approximate
Sun 12:24:00 AM -25.1727 140.2618 102° East  Level FlightAware Approximate
Sun 12:25:00 AM -25.2001 140.4048 102° East  Level FlightAware Approximate
Sun 12:25:40 AM -25.2378 140.6024 102° East 33,000  Level Aus ATC (Calculated)
Sun 12:26:00 AM -25.2274 140.5479 102° East  Level FlightAware Approximate
Sun 12:26:36 AM -25.2688 140.7660 102° East 33,000  Level Aus ATC (Calculated)
Sun 12:27:00 AM -25.2765 140.8070 102° East  Level FlightAware Approximate
Sun 12:28:00 AM -25.3092 140.9810 102° East  Level FlightAware Approximate
Sun 12:29:00 AM -25.3378 141.1346 102° East  Level FlightAware Approximate
Sun 12:30:00 AM -25.3431 141.1631 102° East  Level FlightAware Approximate
Sun 12:30:39 AM -25.3923 141.4292 101° East 33,000  Level Aus ATC (Calculated)
Sun 12:31:00 AM -25.3716 141.3168 102° East  Level FlightAware Approximate
Sun 12:31:34 AM -25.4129 141.5417 101° East 33,000  Level Aus ATC (Calculated)
Sun 12:33:00 AM -25.4531 141.7624 101° East  Level FlightAware Approximate
Sun 12:34:00 AM -25.4809 141.9164 101° East  Level FlightAware Approximate
Sun 12:35:00 AM -25.5086 142.0704 101° East  Level FlightAware Approximate
Sun 12:36:00 AM -25.5361 142.2246 101° East  Level FlightAware Approximate
Sun 12:36:33 AM -25.5548 142.3304 101° East 33,000  Level Aus ATC (Calculated)
Sun 12:37:00 AM -25.5634 142.3788 101° East  Level FlightAware Approximate
Sun 12:38:00 AM -25.5943 142.5542 101° East  Level FlightAware Approximate
Sun 12:38:09 AM -25.5946 142.5561 101° East 33,000  Level Aus ATC (Calculated)
Sun 12:40:00 AM -25.6444 142.8418 101° East  Level FlightAware Approximate
Sun 12:41:00 AM -25.6711 142.9963 101° East  Level FlightAware Approximate
Sun 12:41:00 AM -25.6731 143.0079 101° East 33,000  Level Aus ATC (Calculated)
Sun 12:41:33 AM -25.6926 143.1210 101° East 33,000 75 Level Aus ATC (Calculated)
Sun 12:41:54 AM -25.7022 143.1775 101° East 33,000 76 Level Aus ATC (Calculated)
Sun 12:42:54 AM -25.7311 143.3472 101° East 33,000 77 Level Aus ATC (Calculated)
Sun 12:43:00 AM -25.7312 143.3476 101° East  Level FlightAware Approximate
Sun 12:44:00 AM -25.7599 143.5174 101° East  Level FlightAware Approximate
Sun 12:45:00 AM -25.7859 143.6722 101° East  Level FlightAware Approximate
Sun 12:45:18 AM -25.7883 143.6868 101° East 33,000  Level Aus ATC (Calculated)
Sun 12:46:00 AM -25.8117 143.8271 101° East  Level FlightAware Approximate
Sun 12:46:33 AM -25.8260 143.9133 100° East 33,000  Level Aus ATC (Calculated)
Sun 12:48:00 AM -25.8630 144.1380 100° East  Level FlightAware Approximate
Sun 12:49:00 AM -25.8883 144.2931 100° East  Level FlightAware Approximate
Sun 12:50:00 AM -25.9135 144.4482 100° East  Level FlightAware Approximate
Sun 12:51:00 AM -25.9385 144.6034 100° East  Level FlightAware Approximate
Sun 12:51:32 AM -25.9551 144.7074 100° East 33,000  Level Aus ATC (Calculated)
Sun 12:52:00 AM -25.9633 144.7587 100° East  Level FlightAware Approximate
Sun 12:53:00 AM -25.9858 144.9005 100° East  Level FlightAware Approximate
Sun 12:54:00 AM -26.0102 145.0559 100° East  Level FlightAware Approximate
Sun 12:55:00 AM -26.0345 145.2114 100° East  Level FlightAware Approximate
Sun 12:55:07 AM -26.0426 145.2641 100° East 35,000  Level Aus ATC (Calculated)
Sun 12:57:00 AM -26.0878 145.5571 100° East  Level FlightAware Approximate
Sun 12:58:00 AM -26.1115 145.7128 100° East  Level FlightAware Approximate
Sun 12:59:00 AM -26.1350 145.8686 100° East  Level FlightAware Approximate
Sun 01:00:00 AM -26.1584 146.0244 100° East  Level FlightAware Approximate
Sun 01:00:01 AM -26.1571 146.0153 99° East 35,000  Level Aus ATC (Calculated)
Sun 01:01:07 AM -26.1758 146.1407 99° East 35,000 26 Level Aus ATC (Calculated)
Sun 01:02:00 AM -26.2030 146.3245 99° East  Level FlightAware Approximate
Sun 01:03:00 AM -26.2191 146.4344 99° East  Level FlightAware Approximate
Sun 01:04:00 AM -26.2419 146.5904 99° East  Level FlightAware Approximate
Sun 01:05:00 AM -26.2645 146.7465 99° East  Level FlightAware Approximate
Sun 01:05:01 AM -26.2676 146.7680 99° East 35,000  Level Aus ATC (Calculated)
Sun 01:07:00 AM -26.3119 147.0777 99° East  Level FlightAware Approximate
Sun 01:08:00 AM -26.3340 147.2340 99° East  Level FlightAware Approximate
Sun 01:09:00 AM -26.3559 147.3904 99° East  Level FlightAware Approximate
Sun 01:09:45 AM -26.3742 147.5220 279° West 35,000  Level Aus ATC (Calculated)
Sun 01:10:00 AM -26.3776 147.5467 99° East  Level FlightAware Approximate
Sun 01:11:00 AM -26.4012 147.7176 99° East  Level FlightAware Approximate
Sun 01:11:45 AM -26.3492 147.3391 99° East 486 559 35,300  Level Aus ATC (RADAR)
Sun 01:12:30 AM -26.3654 147.4550 99° East 516 594 35,300  Level Aus ATC (RADAR)
Sun 01:12:50 AM -26.3719 147.5050 98° East 504 580 35,300 480 Level Aus ATC (RADAR)
Sun 01:13:20 AM -26.3816 147.5810 98° East 498 573 35,700 675 Climbing Aus ATC (RADAR)
Sun 01:14:10 AM -26.3987 147.7101 98° East 506 582 36,200 424 Climbing Aus ATC (RADAR)
Sun 01:14:45 AM -26.4117 147.8010 99° East 509 586 36,300  Climbing Aus ATC (RADAR)
Sun 01:15:50 AM -26.4354 147.9687 99° East 504 580 36,200 -48 Descending Aus ATC (RADAR)
Sun 01:16:50 AM -26.4564 148.1231 99° East 503 579 36,200  Level Aus ATC (RADAR)
Sun 01:17:39 AM -26.4730 148.2521 98° East 503 579 36,200  Level Aus ATC (RADAR)
Sun 01:17:59 AM -26.4800 148.3038 99° East 503 579 36,200  Level Aus ATC (RADAR)
Sun 01:18:29 AM -26.4903 148.3812 99° East 503 579 36,200  Level Aus ATC (RADAR)
Sun 01:19:24 AM -26.5085 148.5233 98° East 505 581 36,200  Level Aus ATC (RADAR)
Sun 01:19:59 AM -26.5202 148.6144 98° East 506 582 36,200  Level Aus ATC (RADAR)
Sun 01:20:54 AM -26.5396 148.7564 99° East 504 580 36,200  Level Aus ATC (RADAR)
Sun 01:22:04 AM -26.5873 148.9298 107° East 500 575 36,200  Level Aus ATC (RADAR)
Sun 01:22:49 AM -26.6212 149.0407 109° East 500 575 36,200  Level Aus ATC (RADAR)
Sun 01:23:14 AM -26.6394 149.1025 108° East 500 575 36,200  Level Aus ATC (RADAR)
Sun 01:23:44 AM -26.6609 149.1769 108° East 502 578 36,200  Level Aus ATC (RADAR)
Sun 01:24:34 AM -26.6986 149.2999 109° East 501 577 36,200  Level Aus ATC (RADAR)
Sun 01:25:09 AM -26.7241 149.3859 108° East 498 573 36,200  Level Aus ATC (RADAR)
Sun 01:26:14 AM -26.7716 149.5462 108° East 497 572 36,200  Level Aus ATC (RADAR)
Sun 01:27:49 AM -26.8399 149.7805 108° East 495 570 36,200  Level Aus ATC (RADAR)
Sun 01:28:09 AM -26.8549 149.8299 109° East 498 573 36,200  Level Aus ATC (RADAR)
Sun 01:28:38 AM -26.8767 149.9032 108° East 493 567 36,200  Level Aus ATC (RADAR)
Sun 01:29:33 AM -26.9168 150.0382 108° East 494 568 36,200  Level Aus ATC (RADAR)
Sun 01:30:03 AM -26.9374 150.1123 107° East 494 568 36,200  Level Aus ATC (RADAR)
Sun 01:31:13 AM -26.9879 150.2841 108° East 493 567 36,200  Level Aus ATC (RADAR)
Sun 01:31:38 AM -27.0052 150.3457 108° East 493 567 36,200  Level Aus ATC (RADAR)
Sun 01:33:18 AM -27.0757 150.5898 108° East 490 564 36,200  Level Aus ATC (RADAR)
Sun 01:33:43 AM -27.0931 150.6507 108° East 489 563 36,200 -353 Level Aus ATC (RADAR)
Sun 01:33:52 AM -27.0990 150.6721 107° East 495 570 36,000 -293 Descending FlightAware ADS-B
Sun 01:34:24 AM -27.1211 150.7498 108° East 495 570 36,000 140 Level FlightAware ADS-B
Sun 01:35:18 AM -27.1590 150.8826 108° East 490 564 36,200  Climbing Aus ATC (RADAR)
Sun 01:35:43 AM -27.1734 150.9322 108° East 496 571 36,000 -455 Descending FlightAware ADS-B
Sun 01:36:24 AM -27.2044 151.0424 108° East 499 574 35,700 -1,297 Descending FlightAware ADS-B
Sun 01:37:34 AM -27.2533 151.2147 108° East 503 579 33,600 -1,920 Descending FlightAware ADS-B
Sun 01:38:04 AM -27.2748 151.2909 107° East 500 575 32,500 -2,200 Descending FlightAware ADS-B
Sun 01:38:34 AM -27.2944 151.3622 108° East 485 558 31,400 -2,200 Descending FlightAware ADS-B
Sun 01:39:04 AM -27.3148 151.4338 107° East 469 540 30,300 -2,100 Descending FlightAware ADS-B
Sun 01:39:34 AM -27.3340 151.5018 107° East 455 524 29,300 -1,900 Descending FlightAware ADS-B
Sun 01:40:04 AM -27.3524 151.5675 107° East 443 510 28,400 -1,900 Descending FlightAware ADS-B
Sun 01:40:34 AM -27.3715 151.6353 108° East 434 499 27,400 -2,000 Descending FlightAware ADS-B
Sun 01:41:04 AM -27.3880 151.6963 107° East 427 491 26,400 -1,900 Descending FlightAware ADS-B
Sun 01:41:34 AM -27.4059 151.7604 108° East 419 482 25,500 -1,846 Descending FlightAware ADS-B
Sun 01:42:09 AM -27.4260 151.8345 107° East 414 476 24,400 -1,938 Descending FlightAware ADS-B
Sun 01:42:39 AM -27.4427 151.8960 108° East 405 466 23,400 -1,855 Descending FlightAware ADS-B
Sun 01:43:04 AM -27.4614 151.9415 120° Southeast 396 456 22,700 -1,855 Descending FlightAware ADS-B
Sun 01:43:34 AM -27.4938 151.9909 129° Southeast 386 444 21,700 -1,900 Descending FlightAware ADS-B
Sun 01:44:04 AM -27.5265 152.0381 127° Southeast 380 437 20,800 -1,700 Descending FlightAware ADS-B
Sun 01:44:34 AM -27.5573 152.0843 122° Southeast 377 434 20,000 -1,650 Descending FlightAware ADS-B
Sun 01:44:44 AM -27.5663 152.1025 115° Southeast 378 435 19,700 -2,538 Descending FlightAware ADS-B
Sun 01:45:00 AM -27.5759 152.1333 103° East 377 434 18,900 -3,231 Descending FlightAware ADS-B
Sun 01:45:10 AM -27.5787 152.1525 96° East 384 442 18,300 -3,512 Descending FlightAware ADS-B
Sun 01:45:41 AM -27.5790 152.2159 89° East 402 463 16,500 -2,813 Descending FlightAware ADS-B
Sun 01:46:14 AM -27.5786 152.2845 90° East 403 464 15,300 -2,190 Descending FlightAware ADS-B
Sun 01:46:44 AM -27.5788 152.3433 90° East 393 452 14,200 -2,000 Descending FlightAware ADS-B
Sun 01:47:20 AM -27.5787 152.4196 90° East 387 445 13,100 -2,091 Descending FlightAware ADS-B
Sun 01:47:50 AM -27.5783 152.4811 89° East 380 437 11,900 -2,200 Descending FlightAware ADS-B
Sun 01:48:20 AM -27.5781 152.5377 90° East 369 425 10,900 -2,280 Descending FlightAware ADS-B
Sun 01:48:40 AM -27.5778 152.5773 90° East 361 415 10,000 -2,400 Descending FlightAware ADS-B
Sun 01:49:00 AM -27.5776 152.6149 90° East 349 402 9,300 -2,049 Descending FlightAware ADS-B
Sun 01:49:21 AM -27.5773 152.6506 89° East 339 390 8,600 -1,950 Descending FlightAware ADS-B
Sun 01:49:40 AM -27.5772 152.6840 90° East 337 388 8,000 -2,000 Descending FlightAware ADS-B
Sun 01:50:00 AM -27.5772 152.7197 90° East 335 386 7,300 -2,049 Descending FlightAware ADS-B
Sun 01:50:21 AM -27.5769 152.7561 89° East 332 382 6,600 -1,950 Descending FlightAware ADS-B
Sun 01:50:40 AM -27.5765 152.7882 89° East 330 380 6,000 -1,674 Descending FlightAware ADS-B
Sun 01:51:04 AM -27.5762 152.8299 90° East 318 366 5,400 -1,500 Descending FlightAware ADS-B
Sun 01:51:24 AM -27.5762 152.8611 90° East 302 348 4,900 -1,050 Descending FlightAware ADS-B
Sun 01:51:44 AM -27.5761 152.8919 90° East 280 322 4,700 -643 Descending FlightAware ADS-B
Sun 01:51:52 AM -27.5760 152.9036 89° East 273 314 4,600 -828 Descending FlightAware ADS-B
Sun 01:52:13 AM -27.5759 152.9294 90° East 255 293 4,300 -857 Descending FlightAware ADS-B
Sun 01:52:34 AM -27.5760 152.9579 90° East 242 278 4,000 -732 Descending FlightAware ADS-B
Sun 01:52:54 AM -27.5760 152.9820 90° East 223 257 3,800 -750 Descending FlightAware ADS-B
Sun 01:53:14 AM -27.5753 153.0054 83° East 206 237 3,500 -800 Descending FlightAware ADS-B
Sun 01:53:24 AM -27.5725 153.0149 63° Northeast 197 227 3,400 -900 Descending FlightAware ADS-B
Sun 01:53:34 AM -27.5665 153.0224 38° Northeast 195 224 3,200 -1,034 Descending FlightAware ADS-B
Sun 01:53:53 AM -27.5516 153.0329 29° Northeast 194 223 2,900 -750 Descending FlightAware ADS-B
Sun 01:54:14 AM -27.5352 153.0425 27° Northeast 190 219 2,700 -878 Descending FlightAware ADS-B
Sun 01:54:34 AM -27.5193 153.0515 27° Northeast 191 220 2,300 -1,050 Descending FlightAware ADS-B
Sun 01:54:54 AM -27.5044 153.0600 27° Northeast 181 208 2,000 -900 Descending FlightAware ADS-B
Sun 01:55:14 AM -27.4896 153.0685 27° Northeast 167 192 1,700 -900 Descending FlightAware ADS-B
Sun 01:55:34 AM -27.4771 153.0757 27° Northeast 157 181 1,400 -900 Descending FlightAware ADS-B
Sun 01:55:54 AM -27.4652 153.0826 27° Northeast 132 152 1,100 -750 Descending FlightAware ADS-B
Sun 01:56:14 AM -27.4538 153.0890 27° Northeast 129 148 900 -615 Descending FlightAware ADS-B
Sun 01:56:33 AM -27.4438 153.0948 26° Northeast 131 151 700 -600 Descending FlightAware ADS-B
Sun 01:56:54 AM -27.4330 153.1010 28° Northeast 129 148 500 -732 Descending FlightAware ADS-B
Sun 01:57:14 AM -27.4221 153.1072 27° Northeast 128 147 200 -900 Descending FlightAware ADS-B
Sun 01:58:04 AM -27.3957 153.1223 28° Northeast 110 127 -240 Descending FlightAware ADS-B

Login

Don't have an account? Register now (free) for customized features, flight alerts, and more!